createdAt,value
2017-08-13T00:01:39.298Z,101208
2017-08-13T00:04:07.446Z,101202
2017-08-13T00:06:36.362Z,101200
2017-08-13T00:09:04.537Z,101199
2017-08-13T00:11:32.706Z,101200
2017-08-13T00:14:00.850Z,101197
2017-08-13T00:16:29.825Z,101198
2017-08-13T00:18:57.999Z,101205
2017-08-13T00:21:26.142Z,101206
2017-08-13T00:23:54.338Z,101211
2017-08-13T00:26:22.501Z,101206
2017-08-13T00:28:50.651Z,101200
2017-08-13T00:31:18.849Z,101205
2017-08-13T00:33:47.014Z,101213
2017-08-13T00:36:15.176Z,101202
2017-08-13T00:38:43.346Z,101200
2017-08-13T00:41:11.509Z,101202
2017-08-13T00:43:39.662Z,101209
2017-08-13T00:46:08.625Z,101202
2017-08-13T00:48:36.789Z,101211
2017-08-13T00:51:04.938Z,101215
2017-08-13T00:53:33.136Z,101214
2017-08-13T00:56:01.288Z,101214
2017-08-13T00:58:29.436Z,101205
2017-08-13T01:00:58.408Z,101213
2017-08-13T01:03:26.549Z,101205
2017-08-13T01:05:54.708Z,101207
2017-08-13T01:08:22.904Z,101203
2017-08-13T01:10:51.070Z,101210
2017-08-13T01:13:19.233Z,101204
2017-08-13T01:15:47.409Z,101207
2017-08-13T01:18:15.559Z,101212
2017-08-13T01:20:44.476Z,101214
2017-08-13T01:23:12.660Z,101222
2017-08-13T01:25:40.831Z,101222
2017-08-13T01:28:09.000Z,101222
2017-08-13T01:30:37.201Z,101217
2017-08-13T01:33:05.366Z,101226
2017-08-13T01:35:33.533Z,101233
2017-08-13T01:38:01.720Z,101237
2017-08-13T01:40:29.884Z,101237
2017-08-13T01:42:58.029Z,101233
2017-08-13T01:45:26.227Z,101236
2017-08-13T01:47:54.382Z,101226
2017-08-13T01:50:22.525Z,101223
2017-08-13T01:52:50.703Z,101224
2017-08-13T01:55:18.860Z,101226
2017-08-13T01:57:47.025Z,101230
2017-08-13T02:00:15.220Z,101233
2017-08-13T02:02:43.368Z,101233
2017-08-13T02:05:11.515Z,101248
2017-08-13T02:07:39.709Z,101243
2017-08-13T02:10:07.879Z,101250
2017-08-13T02:12:36.637Z,101236
2017-08-13T02:15:04.828Z,101245
2017-08-13T02:17:32.989Z,101249
2017-08-13T02:20:01.132Z,101248
2017-08-13T02:22:29.325Z,101246
2017-08-13T02:24:58.253Z,101253
2017-08-13T02:27:26.401Z,101243
2017-08-13T02:29:54.600Z,101248
2017-08-13T02:32:22.774Z,101250
2017-08-13T02:34:50.937Z,101249
2017-08-13T02:37:19.106Z,101252
2017-08-13T02:39:47.273Z,101257
2017-08-13T02:42:15.451Z,101250
2017-08-13T02:44:43.651Z,101265
2017-08-13T02:47:11.810Z,101262
2017-08-13T02:49:39.954Z,101266
2017-08-13T02:52:08.898Z,101259
2017-08-13T02:54:37.076Z,101262
2017-08-13T02:57:05.246Z,101261
2017-08-13T02:59:33.451Z,101266
2017-08-13T03:02:01.617Z,101268
2017-08-13T03:04:29.784Z,101267
2017-08-13T03:06:57.977Z,101274
2017-08-13T03:09:26.123Z,101279
2017-08-13T03:11:54.288Z,101286
2017-08-13T03:14:22.481Z,101291
2017-08-13T03:16:51.528Z,101292
2017-08-13T03:19:19.701Z,101294
2017-08-13T03:21:47.889Z,101297
2017-08-13T03:24:16.059Z,101293
2017-08-13T03:26:44.232Z,101292
2017-08-13T03:29:12.423Z,101298
2017-08-13T03:31:40.590Z,101297
2017-08-13T03:34:08.753Z,101297
2017-08-13T03:36:36.930Z,101298
2017-08-13T03:39:05.079Z,101305
2017-08-13T03:41:34.016Z,101308
2017-08-13T03:44:02.214Z,101299
2017-08-13T03:46:30.370Z,101312
2017-08-13T03:48:58.536Z,101310
2017-08-13T03:51:26.713Z,101314
2017-08-13T03:53:54.862Z,101319
2017-08-13T03:56:23.009Z,101314
2017-08-13T03:58:51.208Z,101315
2017-08-13T04:01:20.137Z,101318
2017-08-13T04:03:48.281Z,101319
2017-08-13T04:06:16.462Z,101332
2017-08-13T04:08:44.613Z,101337
2017-08-13T04:11:13.518Z,101332
2017-08-13T04:13:41.709Z,101336
2017-08-13T04:16:09.907Z,101344
2017-08-13T04:18:38.056Z,101344
2017-08-13T04:21:06.242Z,101340
2017-08-13T04:23:34.398Z,101346
2017-08-13T04:26:02.571Z,101356
2017-08-13T04:28:30.750Z,101355
2017-08-13T04:30:58.917Z,101355
2017-08-13T04:33:27.066Z,101352
2017-08-13T04:35:56.033Z,101356
2017-08-13T04:38:24.179Z,101367
2017-08-13T04:40:52.322Z,101359
2017-08-13T04:43:21.306Z,101368
2017-08-13T04:45:50.236Z,101367
2017-08-13T04:48:18.405Z,101379
2017-08-13T04:50:46.672Z,101381
2017-08-13T04:53:14.820Z,101379
2017-08-13T04:55:43.738Z,101379
2017-08-13T04:58:11.930Z,101388
2017-08-13T05:00:41.008Z,101389
2017-08-13T05:03:09.157Z,101392
2017-08-13T05:05:38.099Z,101404
2017-08-13T05:08:06.271Z,101406
2017-08-13T05:10:34.442Z,101407
2017-08-13T05:13:02.615Z,101416
2017-08-13T05:15:30.784Z,101411
2017-08-13T05:17:58.953Z,101419
2017-08-13T05:20:27.150Z,101416
2017-08-13T05:22:55.319Z,101415
2017-08-13T05:25:23.466Z,101425
2017-08-13T05:27:51.652Z,101433
2017-08-13T05:30:19.805Z,101439
2017-08-13T05:32:48.739Z,101435
2017-08-13T05:35:16.913Z,101439
2017-08-13T05:37:45.062Z,101440
2017-08-13T05:40:13.224Z,101443
2017-08-13T05:42:41.427Z,101445
2017-08-13T05:45:09.598Z,101455
2017-08-13T05:47:37.769Z,101454
2017-08-13T05:50:05.941Z,101458
2017-08-13T05:52:34.081Z,101461
2017-08-13T05:55:03.013Z,101464
2017-08-13T05:57:31.206Z,101471
2017-08-13T05:59:59.373Z,101469
2017-08-13T06:02:27.522Z,101477
2017-08-13T06:04:55.699Z,101475
2017-08-13T06:07:23.862Z,101477
2017-08-13T06:09:52.780Z,101493
2017-08-13T06:12:20.954Z,101484
2017-08-13T06:14:49.117Z,101491
2017-08-13T06:17:17.266Z,101487
2017-08-13T06:19:46.240Z,101490
2017-08-13T06:22:14.392Z,101494
2017-08-13T06:24:42.562Z,101494
2017-08-13T06:27:10.758Z,101487
2017-08-13T06:29:38.911Z,101493
2017-08-13T06:32:07.076Z,101495
2017-08-13T06:34:35.246Z,101490
2017-08-13T06:37:03.414Z,101498
2017-08-13T06:39:31.576Z,101500
2017-08-13T06:41:59.760Z,101510
2017-08-13T06:44:27.999Z,101511
2017-08-13T06:46:56.165Z,101513
2017-08-13T06:49:24.352Z,101527
2017-08-13T06:51:53.279Z,101525
2017-08-13T06:54:21.452Z,101538
2017-08-13T06:56:49.637Z,101535
2017-08-13T06:59:17.787Z,101539
2017-08-13T07:01:45.950Z,101530
2017-08-13T07:04:14.144Z,101541
2017-08-13T07:06:42.290Z,101535
2017-08-13T07:09:11.210Z,101535
2017-08-13T07:11:39.401Z,101540
2017-08-13T07:14:07.547Z,101542
2017-08-13T07:16:36.460Z,101544
2017-08-13T07:19:04.664Z,101547
2017-08-13T07:21:32.835Z,101551
2017-08-13T07:24:00.997Z,101559
2017-08-13T07:26:29.183Z,101556
2017-08-13T07:28:57.331Z,101563
2017-08-13T07:31:25.496Z,101562
2017-08-13T07:33:53.679Z,101565
2017-08-13T07:36:21.829Z,101569
2017-08-13T07:38:50.770Z,101569
2017-08-13T07:41:18.959Z,101575
2017-08-13T07:43:47.101Z,101580
2017-08-13T07:46:15.268Z,101586
2017-08-13T07:48:43.451Z,101581
2017-08-13T07:51:11.617Z,101588
2017-08-13T07:53:39.776Z,101592
2017-08-13T07:56:07.950Z,101589
2017-08-13T07:58:36.101Z,101593
2017-08-13T08:01:04.249Z,101602
2017-08-13T08:03:32.426Z,101601
2017-08-13T08:06:00.589Z,101603
2017-08-13T08:08:28.738Z,101608
2017-08-13T08:10:56.930Z,101612
2017-08-13T08:13:25.078Z,101607
2017-08-13T08:15:53.223Z,101606
2017-08-13T08:18:22.186Z,101613
2017-08-13T08:20:50.345Z,101618
2017-08-13T08:23:18.496Z,101623
2017-08-13T08:25:46.688Z,101618
2017-08-13T08:28:14.857Z,101600
2017-08-13T08:30:43.024Z,101587
2017-08-13T08:33:11.205Z,101595
2017-08-13T08:35:39.380Z,101594
2017-08-13T08:38:07.640Z,101589
2017-08-13T08:40:35.910Z,101608
2017-08-13T08:43:04.845Z,101591
2017-08-13T08:45:33.016Z,101596
2017-08-13T08:48:01.186Z,101601
2017-08-13T08:50:29.333Z,101618
2017-08-13T08:52:57.492Z,101621
2017-08-13T08:55:25.671Z,101623
2017-08-13T08:57:53.825Z,101629
2017-08-13T09:00:21.994Z,101632
2017-08-13T09:02:50.202Z,101637
2017-08-13T09:05:19.137Z,101638
2017-08-13T09:07:47.310Z,101643
2017-08-13T09:10:15.508Z,101640
2017-08-13T09:12:43.655Z,101647
2017-08-13T09:15:11.821Z,101643
2017-08-13T09:17:40.001Z,101656
2017-08-13T09:20:08.156Z,101656
2017-08-13T09:22:36.328Z,101671
2017-08-13T09:25:05.304Z,101679
2017-08-13T09:27:33.459Z,101693
2017-08-13T09:30:01.642Z,101700
2017-08-13T09:32:29.810Z,101688
2017-08-13T09:34:57.974Z,101697
2017-08-13T09:37:26.119Z,101704
2017-08-13T09:39:55.058Z,101702
2017-08-13T09:42:23.985Z,101707
2017-08-13T09:44:52.140Z,101699
2017-08-13T09:47:20.338Z,101698
2017-08-13T09:49:48.497Z,101699
2017-08-13T09:52:16.670Z,101699
2017-08-13T09:54:44.860Z,101697
2017-08-13T09:57:13.026Z,101699
2017-08-13T09:59:41.195Z,101698
2017-08-13T10:02:09.391Z,101698
2017-08-13T10:04:37.553Z,101703
2017-08-13T10:07:05.721Z,101703
2017-08-13T10:09:33.893Z,101705
2017-08-13T10:12:02.040Z,101711
2017-08-13T10:14:30.972Z,101710
2017-08-13T10:16:59.155Z,101714
2017-08-13T10:19:27.306Z,101721
2017-08-13T10:21:55.482Z,101721
2017-08-13T10:24:23.683Z,101727
2017-08-13T10:26:51.845Z,101729
2017-08-13T10:29:20.065Z,101732
2017-08-13T10:31:48.269Z,101726
2017-08-13T10:34:17.178Z,101739
2017-08-13T10:36:45.326Z,101738
2017-08-13T10:39:14.342Z,101738
2017-08-13T10:41:42.495Z,101737
2017-08-13T10:44:11.407Z,101737
2017-08-13T10:46:39.597Z,101740
2017-08-13T10:49:07.739Z,101738
2017-08-13T10:51:36.673Z,101733
2017-08-13T10:54:04.846Z,101730
2017-08-13T10:56:32.991Z,101737
2017-08-13T10:59:01.134Z,101740
2017-08-13T11:01:29.335Z,101730
2017-08-13T11:03:58.245Z,101730
2017-08-13T11:06:26.415Z,101727
2017-08-13T11:08:54.608Z,101727
2017-08-13T11:11:22.771Z,101726
2017-08-13T11:13:50.928Z,101725
2017-08-13T11:16:19.121Z,101730
2017-08-13T11:18:47.274Z,101737
2017-08-13T11:21:16.205Z,101736
2017-08-13T11:23:44.402Z,101731
2017-08-13T11:26:12.545Z,101738
2017-08-13T11:28:40.692Z,101745
2017-08-13T11:31:08.884Z,101740
2017-08-13T11:33:37.044Z,101739
2017-08-13T11:36:05.200Z,101745
2017-08-13T11:38:34.164Z,101742
2017-08-13T11:41:02.309Z,101746
2017-08-13T11:43:30.459Z,101744
2017-08-13T11:45:58.652Z,101743
2017-08-13T11:48:26.818Z,101743
2017-08-13T11:50:54.967Z,101743
2017-08-13T11:53:23.906Z,101748
2017-08-13T11:55:52.069Z,101740
2017-08-13T11:58:20.231Z,101742
2017-08-13T12:00:48.416Z,101748
2017-08-13T12:03:16.566Z,101747
2017-08-13T12:05:45.501Z,101748
2017-08-13T12:08:13.695Z,101751
2017-08-13T12:10:41.844Z,101753
2017-08-13T12:13:09.987Z,101747
2017-08-13T12:15:38.181Z,101748
2017-08-13T12:18:06.326Z,101750
2017-08-13T12:20:35.262Z,101744
2017-08-13T12:23:03.457Z,101747
2017-08-13T12:25:31.622Z,101744
2017-08-13T12:27:59.785Z,101745
2017-08-13T12:30:27.973Z,101750
2017-08-13T12:32:56.134Z,101758
2017-08-13T12:35:24.282Z,101761
2017-08-13T12:37:52.461Z,101763
2017-08-13T12:40:20.637Z,101763
2017-08-13T12:42:48.807Z,101769
2017-08-13T12:45:16.982Z,101762
2017-08-13T12:47:45.126Z,101767
2017-08-13T12:50:13.293Z,101757
2017-08-13T12:52:41.482Z,101760
2017-08-13T12:55:10.394Z,101758
2017-08-13T12:57:38.544Z,101766
2017-08-13T13:00:07.501Z,101769
2017-08-13T13:02:35.669Z,101772
2017-08-13T13:05:03.817Z,101761
2017-08-13T13:07:31.986Z,101761
2017-08-13T13:10:00.134Z,101768
2017-08-13T13:12:29.076Z,101771
2017-08-13T13:14:57.281Z,101774
2017-08-13T13:17:25.426Z,101779
2017-08-13T13:19:53.578Z,101780
2017-08-13T13:22:22.102Z,101787
2017-08-13T13:24:50.251Z,101790
2017-08-13T13:27:18.430Z,101785
2017-08-13T13:29:46.632Z,101785
2017-08-13T13:32:14.884Z,101787
2017-08-13T13:34:43.034Z,101800
2017-08-13T13:37:11.211Z,101793
2017-08-13T13:39:39.358Z,101792
2017-08-13T13:42:07.512Z,101788
2017-08-13T13:44:35.686Z,101785
2017-08-13T13:47:03.851Z,101798
2017-08-13T13:49:32.045Z,101789
2017-08-13T13:52:00.219Z,101793
2017-08-13T13:54:28.384Z,101791
2017-08-13T13:56:56.529Z,101806
2017-08-13T13:59:24.720Z,101802
2017-08-13T14:01:52.885Z,101793
2017-08-13T14:04:21.050Z,101807
2017-08-13T14:06:50.206Z,101809
2017-08-13T14:09:19.115Z,101808
2017-08-13T14:11:47.265Z,101816
2017-08-13T14:14:16.233Z,101809
2017-08-13T14:16:45.911Z,101809
2017-08-13T14:19:14.063Z,101818
2017-08-13T14:21:42.258Z,101823
2017-08-13T14:24:10.421Z,101820
2017-08-13T14:26:38.590Z,101823
2017-08-13T14:29:06.781Z,101821
2017-08-13T14:31:34.941Z,101830
2017-08-13T14:34:03.090Z,101822
2017-08-13T14:36:32.029Z,101824
2017-08-13T14:39:00.197Z,101826
2017-08-13T14:41:28.346Z,101830
2017-08-13T14:43:56.538Z,101832
2017-08-13T14:46:24.710Z,101840
2017-08-13T14:48:52.862Z,101836
2017-08-13T14:51:21.821Z,101835
2017-08-13T14:53:49.993Z,101840
2017-08-13T14:56:18.163Z,101839
2017-08-13T14:58:46.338Z,101836
2017-08-13T15:01:14.485Z,101833
2017-08-13T15:03:42.653Z,101834
2017-08-13T15:06:10.825Z,101841
2017-08-13T15:08:38.973Z,101846
2017-08-13T15:11:07.878Z,101846
2017-08-13T15:13:36.057Z,101839
2017-08-13T15:16:04.206Z,101845
2017-08-13T15:18:33.140Z,101852
2017-08-13T15:21:01.431Z,101856
2017-08-13T15:23:29.601Z,101852
2017-08-13T15:25:57.769Z,101864
2017-08-13T15:28:25.954Z,101873
2017-08-13T15:30:54.103Z,101859
2017-08-13T15:33:22.255Z,101863
2017-08-13T15:35:51.191Z,101858
2017-08-13T15:38:19.353Z,101850
2017-08-13T15:40:47.516Z,101860
2017-08-13T15:43:15.686Z,101864
2017-08-13T15:45:43.830Z,101862
2017-08-13T15:48:11.993Z,101857
2017-08-13T15:50:40.193Z,101862
2017-08-13T15:53:09.115Z,101863
2017-08-13T15:55:37.284Z,101856
2017-08-13T15:58:05.803Z,101861
2017-08-13T16:00:33.947Z,101865
2017-08-13T16:03:02.094Z,101871
2017-08-13T16:05:31.034Z,101872
2017-08-13T16:07:59.181Z,101874
2017-08-13T16:10:27.329Z,101869
2017-08-13T16:12:56.302Z,101874
2017-08-13T16:15:24.450Z,101879
2017-08-13T16:17:52.621Z,101875
2017-08-13T16:20:20.801Z,101878
2017-08-13T16:22:48.946Z,101877
2017-08-13T16:25:17.100Z,101871
2017-08-13T16:27:45.290Z,101870
2017-08-13T16:30:13.438Z,101873
2017-08-13T16:32:42.358Z,101879
2017-08-13T16:35:10.551Z,101884
2017-08-13T16:37:38.729Z,101885
2017-08-13T16:40:06.914Z,101887
2017-08-13T16:42:35.110Z,101880
2017-08-13T16:45:03.281Z,101887
2017-08-13T16:47:31.424Z,101890
2017-08-13T16:49:59.617Z,101899
2017-08-13T16:52:28.588Z,101901
2017-08-13T16:54:56.735Z,101908
2017-08-13T16:57:24.929Z,101900
2017-08-13T16:59:53.097Z,101906
2017-08-13T17:02:21.242Z,101905
2017-08-13T17:04:50.510Z,101898
2017-08-13T17:07:18.677Z,101896
2017-08-13T17:09:46.824Z,101906
2017-08-13T17:12:15.000Z,101901
2017-08-13T17:14:43.168Z,101907
2017-08-13T17:17:11.313Z,101908
2017-08-13T17:19:40.270Z,101910
2017-08-13T17:22:08.435Z,101912
2017-08-13T17:24:36.583Z,101913
2017-08-13T17:27:04.764Z,101917
2017-08-13T17:29:32.936Z,101919
2017-08-13T17:32:01.132Z,101914
2017-08-13T17:34:29.336Z,101918
2017-08-13T17:36:57.500Z,101918
2017-08-13T17:39:25.675Z,101914
2017-08-13T17:41:53.851Z,101920
2017-08-13T17:44:22.001Z,101918
2017-08-13T17:46:50.145Z,101924
2017-08-13T17:49:18.317Z,101927
2017-08-13T17:51:46.487Z,101925
2017-08-13T17:54:15.411Z,101928
2017-08-13T17:56:43.601Z,101937
2017-08-13T17:59:11.760Z,101931
2017-08-13T18:01:39.902Z,101935
2017-08-13T18:04:08.090Z,101934
2017-08-13T18:06:36.242Z,101949
2017-08-13T18:09:05.155Z,101943
2017-08-13T18:11:33.330Z,101942
2017-08-13T18:14:01.483Z,101948
2017-08-13T18:16:30.399Z,101941
2017-08-13T18:18:58.595Z,101945
2017-08-13T18:21:26.737Z,101945
2017-08-13T18:23:54.909Z,101957
2017-08-13T18:26:23.850Z,101954
2017-08-13T18:28:51.995Z,101966
2017-08-13T18:31:20.160Z,101967
2017-08-13T18:33:48.774Z,101967
2017-08-13T18:36:16.937Z,101966
2017-08-13T18:38:45.095Z,101976
2017-08-13T18:41:13.304Z,101972
2017-08-13T18:43:41.476Z,101979
2017-08-13T18:46:09.749Z,101979
2017-08-13T18:48:38.078Z,101992
2017-08-13T18:51:06.454Z,101987
2017-08-13T18:53:34.786Z,101993
2017-08-13T18:56:03.139Z,101990
2017-08-13T18:58:31.457Z,101996
2017-08-13T19:00:59.783Z,101998
2017-08-13T19:03:28.259Z,101997
2017-08-13T19:05:56.717Z,102011
2017-08-13T19:08:25.123Z,102008
2017-08-13T19:10:53.527Z,102011
2017-08-13T19:13:21.998Z,102020
2017-08-13T19:15:50.457Z,102024
2017-08-13T19:18:18.955Z,102022
2017-08-13T19:20:47.422Z,102025
2017-08-13T19:23:15.918Z,102025
2017-08-13T19:25:44.418Z,102026
2017-08-13T19:28:12.884Z,102035
2017-08-13T19:30:41.364Z,102027
2017-08-13T19:33:10.899Z,102041
2017-08-13T19:35:39.388Z,102038
2017-08-13T19:38:08.599Z,102039
2017-08-13T19:40:37.805Z,102035
2017-08-13T19:43:07.019Z,102042
2017-08-13T19:45:35.487Z,102041
2017-08-13T19:48:03.969Z,102043
2017-08-13T19:50:33.107Z,102045
2017-08-13T19:53:01.542Z,102056
2017-08-13T19:55:30.731Z,102049
2017-08-13T19:57:59.933Z,102052
2017-08-13T20:00:29.080Z,102052
2017-08-13T20:02:57.470Z,102053
2017-08-13T20:05:25.771Z,102049
2017-08-13T20:07:54.047Z,102060
2017-08-13T20:10:22.299Z,102058
2017-08-13T20:12:50.498Z,102058
2017-08-13T20:15:18.711Z,102065
2017-08-13T20:17:47.678Z,102067
2017-08-13T20:20:15.823Z,102064
2017-08-13T20:22:43.970Z,102062
2017-08-13T20:25:12.923Z,102076
2017-08-13T20:27:41.079Z,102065
2017-08-13T20:30:09.256Z,102067
2017-08-13T20:32:37.458Z,102065
2017-08-13T20:35:05.613Z,102074
2017-08-13T20:37:33.784Z,102076
2017-08-13T20:40:01.985Z,102079
2017-08-13T20:42:30.160Z,102081
2017-08-13T20:44:58.328Z,102084
2017-08-13T20:47:26.526Z,102082
2017-08-13T20:49:55.442Z,102073
2017-08-13T20:52:23.608Z,102085
2017-08-13T20:54:52.543Z,102093
2017-08-13T20:57:20.720Z,102086
2017-08-13T20:59:48.901Z,102095
2017-08-13T21:02:17.104Z,102095
2017-08-13T21:04:45.277Z,102103
2017-08-13T21:07:13.428Z,102096
2017-08-13T21:09:41.594Z,102102
2017-08-13T21:12:09.760Z,102097
2017-08-13T21:14:37.930Z,102105
2017-08-13T21:17:06.103Z,102111
2017-08-13T21:19:34.249Z,102100
2017-08-13T21:22:02.413Z,102104
2017-08-13T21:24:30.877Z,102106
2017-08-13T21:26:59.050Z,102108
2017-08-13T21:29:27.198Z,102108
2017-08-13T21:31:55.369Z,102109
2017-08-13T21:34:23.545Z,102117
2017-08-13T21:36:51.718Z,102113
2017-08-13T21:39:19.934Z,102125
2017-08-13T21:41:48.874Z,102116
2017-08-13T21:44:17.037Z,102118
2017-08-13T21:46:45.554Z,102117
2017-08-13T21:49:13.724Z,102121
2017-08-13T21:51:41.891Z,102125
2017-08-13T21:54:10.063Z,102129
2017-08-13T21:56:38.210Z,102134
2017-08-13T21:59:06.358Z,102135
2017-08-13T22:01:35.323Z,102126
2017-08-13T22:04:03.488Z,102132
2017-08-13T22:06:31.633Z,102131
2017-08-13T22:08:59.822Z,102130
2017-08-13T22:11:27.993Z,102140
2017-08-13T22:13:56.142Z,102132
2017-08-13T22:16:24.338Z,102130
2017-08-13T22:18:52.485Z,102131
2017-08-13T22:21:21.402Z,102127
2017-08-13T22:23:49.588Z,102129
2017-08-13T22:26:17.734Z,102131
2017-08-13T22:28:45.887Z,102126
2017-08-13T22:31:14.839Z,102129
2017-08-13T22:33:42.985Z,102129
2017-08-13T22:36:11.132Z,102122
2017-08-13T22:38:40.098Z,102127
2017-08-13T22:41:08.250Z,102130
2017-08-13T22:43:36.390Z,102127
2017-08-13T22:46:04.566Z,102126
2017-08-13T22:48:32.726Z,102114
2017-08-13T22:51:01.633Z,102120
2017-08-13T22:53:29.807Z,102121
2017-08-13T22:55:57.971Z,102126
2017-08-13T22:58:26.122Z,102122
2017-08-13T23:00:54.317Z,102121
2017-08-13T23:03:23.229Z,102121
2017-08-13T23:05:51.378Z,102130
2017-08-13T23:08:20.323Z,102125
2017-08-13T23:10:48.496Z,102128
2017-08-13T23:13:16.669Z,102127
2017-08-13T23:15:44.869Z,102129
2017-08-13T23:18:13.026Z,102134
2017-08-13T23:20:41.178Z,102141
2017-08-13T23:23:10.298Z,102137
2017-08-13T23:25:38.470Z,102148
2017-08-13T23:28:06.638Z,102143
2017-08-13T23:30:34.819Z,102145
2017-08-13T23:33:02.984Z,102145
2017-08-13T23:35:31.138Z,102144
2017-08-13T23:37:59.314Z,102146
2017-08-13T23:40:27.482Z,102143
2017-08-13T23:42:55.621Z,102148
2017-08-13T23:45:23.794Z,102140
2017-08-13T23:47:51.961Z,102145
2017-08-13T23:50:20.108Z,102146
2017-08-13T23:52:48.300Z,102148
2017-08-13T23:55:16.471Z,102145
2017-08-13T23:57:44.641Z,102157
